sensor_id;sensor_type;location;lat;lon;timestamp;P1;durP1;ratioP1;P2;durP2;ratioP2
72569;SDS011;60594;50.204;8.844;2023-02-28T00:03:54;4.45;;;2.38;;
72569;SDS011;60594;50.204;8.844;2023-02-28T00:06:22;4.18;;;2.45;;
72569;SDS011;60594;50.204;8.844;2023-02-28T00:08:48;6.63;;;2.80;;
72569;SDS011;60594;50.204;8.844;2023-02-28T00:11:15;5.22;;;2.35;;
72569;SDS011;60594;50.204;8.844;2023-02-28T00:13:44;5.82;;;2.70;;
72569;SDS011;60594;50.204;8.844;2023-02-28T00:16:16;5.38;;;2.53;;
72569;SDS011;60594;50.204;8.844;2023-02-28T00:18:44;4.47;;;2.08;;
72569;SDS011;60594;50.204;8.844;2023-02-28T00:21:10;4.57;;;2.47;;
72569;SDS011;60594;50.204;8.844;2023-02-28T00:23:37;4.38;;;2.63;;
72569;SDS011;60594;50.204;8.844;2023-02-28T00:26:03;4.72;;;2.33;;
72569;SDS011;60594;50.204;8.844;2023-02-28T00:28:30;5.93;;;2.30;;
72569;SDS011;60594;50.204;8.844;2023-02-28T00:30:59;3.53;;;2.05;;
72569;SDS011;60594;50.204;8.844;2023-02-28T00:33:26;4.18;;;2.60;;
72569;SDS011;60594;50.204;8.844;2023-02-28T00:36:01;4.65;;;2.55;;
72569;SDS011;60594;50.204;8.844;2023-02-28T00:38:32;5.65;;;2.72;;
72569;SDS011;60594;50.204;8.844;2023-02-28T00:41:00;5.65;;;2.88;;
72569;SDS011;60594;50.204;8.844;2023-02-28T00:43:31;3.92;;;2.47;;
72569;SDS011;60594;50.204;8.844;2023-02-28T00:45:58;4.70;;;2.53;;
72569;SDS011;60594;50.204;8.844;2023-02-28T00:48:25;5.05;;;2.90;;
72569;SDS011;60594;50.204;8.844;2023-02-28T00:50:51;5.40;;;2.50;;
72569;SDS011;60594;50.204;8.844;2023-02-28T00:53:18;5.57;;;3.17;;
72569;SDS011;60594;50.204;8.844;2023-02-28T00:55:44;5.32;;;2.63;;
72569;SDS011;60594;50.204;8.844;2023-02-28T00:58:11;4.93;;;2.42;;
72569;SDS011;60594;50.204;8.844;2023-02-28T01:00:37;6.25;;;2.85;;
72569;SDS011;60594;50.204;8.844;2023-02-28T01:03:03;5.45;;;2.80;;
72569;SDS011;60594;50.204;8.844;2023-02-28T01:05:30;4.65;;;3.03;;
72569;SDS011;60594;50.204;8.844;2023-02-28T01:07:57;8.60;;;2.85;;
72569;SDS011;60594;50.204;8.844;2023-02-28T01:10:23;4.85;;;3.05;;
72569;SDS011;60594;50.204;8.844;2023-02-28T01:12:51;5.10;;;2.40;;
72569;SDS011;60594;50.204;8.844;2023-02-28T01:15:17;5.03;;;3.58;;
72569;SDS011;60594;50.204;8.844;2023-02-28T01:17:45;4.80;;;2.58;;
72569;SDS011;60594;50.204;8.844;2023-02-28T01:20:11;6.28;;;2.53;;
72569;SDS011;60594;50.204;8.844;2023-02-28T01:22:38;4.03;;;2.92;;
72569;SDS011;60594;50.204;8.844;2023-02-28T01:25:04;4.97;;;2.60;;
72569;SDS011;60594;50.204;8.844;2023-02-28T01:27:31;6.95;;;3.38;;
72569;SDS011;60594;50.204;8.844;2023-02-28T01:29:59;5.28;;;2.42;;
72569;SDS011;60594;50.204;8.844;2023-02-28T01:32:26;5.78;;;3.03;;
72569;SDS011;60594;50.204;8.844;2023-02-28T01:34:52;6.43;;;2.58;;
72569;SDS011;60594;50.204;8.844;2023-02-28T01:37:19;5.93;;;3.28;;
72569;SDS011;60594;50.204;8.844;2023-02-28T01:39:45;5.13;;;2.28;;
72569;SDS011;60594;50.204;8.844;2023-02-28T01:42:12;4.88;;;2.53;;
72569;SDS011;60594;50.204;8.844;2023-02-28T01:47:43;5.20;;;2.95;;
72569;SDS011;60594;50.204;8.844;2023-02-28T01:50:14;6.10;;;2.63;;
72569;SDS011;60594;50.204;8.844;2023-02-28T01:52:44;5.07;;;2.55;;
72569;SDS011;60594;50.204;8.844;2023-02-28T01:55:14;4.13;;;2.42;;
72569;SDS011;60594;50.204;8.844;2023-02-28T01:57:43;3.83;;;2.00;;
72569;SDS011;60594;50.204;8.844;2023-02-28T02:00:16;5.07;;;2.10;;
72569;SDS011;60594;50.204;8.844;2023-02-28T02:02:47;5.75;;;2.70;;
72569;SDS011;60594;50.204;8.844;2023-02-28T02:05:18;4.13;;;2.55;;
72569;SDS011;60594;50.204;8.844;2023-02-28T02:07:52;4.55;;;2.33;;
72569;SDS011;60594;50.204;8.844;2023-02-28T02:11:04;5.00;;;2.60;;
72569;SDS011;60594;50.204;8.844;2023-02-28T02:13:25;4.95;;;2.03;;
72569;SDS011;60594;50.204;8.844;2023-02-28T02:18:48;3.75;;;2.33;;
72569;SDS011;60594;50.204;8.844;2023-02-28T02:26:49;4.00;;;2.53;;
72569;SDS011;60594;50.204;8.844;2023-02-28T02:44:07;2.97;;;1.90;;
72569;SDS011;60594;50.204;8.844;2023-02-28T02:46:41;4.53;;;2.45;;
72569;SDS011;60594;50.204;8.844;2023-02-28T02:49:16;4.15;;;2.17;;
72569;SDS011;60594;50.204;8.844;2023-02-28T02:51:47;3.95;;;1.85;;
72569;SDS011;60594;50.204;8.844;2023-02-28T02:57:03;4.22;;;2.17;;
72569;SDS011;60594;50.204;8.844;2023-02-28T02:59:35;4.22;;;2.45;;
72569;SDS011;60594;50.204;8.844;2023-02-28T03:02:06;5.05;;;2.05;;
72569;SDS011;60594;50.204;8.844;2023-02-28T03:04:39;4.13;;;2.58;;
72569;SDS011;60594;50.204;8.844;2023-02-28T03:07:10;5.35;;;2.78;;
72569;SDS011;60594;50.204;8.844;2023-02-28T03:09:37;4.10;;;2.10;;
72569;SDS011;60594;50.204;8.844;2023-02-28T03:17:41;4.88;;;2.33;;
72569;SDS011;60594;50.204;8.844;2023-02-28T03:31:57;4.60;;;1.95;;
72569;SDS011;60594;50.204;8.844;2023-02-28T03:34:30;4.10;;;2.15;;
72569;SDS011;60594;50.204;8.844;2023-02-28T03:37:04;4.40;;;2.38;;
72569;SDS011;60594;50.204;8.844;2023-02-28T03:39:39;4.43;;;2.63;;
72569;SDS011;60594;50.204;8.844;2023-02-28T03:42:11;3.75;;;1.90;;
72569;SDS011;60594;50.204;8.844;2023-02-28T03:45:00;5.28;;;1.85;;
72569;SDS011;60594;50.204;8.844;2023-02-28T03:47:35;4.63;;;2.25;;
72569;SDS011;60594;50.204;8.844;2023-02-28T03:50:08;6.20;;;3.15;;
72569;SDS011;60594;50.204;8.844;2023-02-28T03:52:46;4.53;;;2.13;;
72569;SDS011;60594;50.204;8.844;2023-02-28T03:55:16;4.32;;;2.72;;
72569;SDS011;60594;50.204;8.844;2023-02-28T03:57:48;4.32;;;2.85;;
72569;SDS011;60594;50.204;8.844;2023-02-28T04:00:18;4.57;;;2.40;;
72569;SDS011;60594;50.204;8.844;2023-02-28T04:02:50;3.58;;;2.20;;
72569;SDS011;60594;50.204;8.844;2023-02-28T04:05:19;4.70;;;2.58;;
72569;SDS011;60594;50.204;8.844;2023-02-28T04:07:47;3.70;;;1.50;;
72569;SDS011;60594;50.204;8.844;2023-02-28T04:10:14;3.10;;;1.88;;
72569;SDS011;60594;50.204;8.844;2023-02-28T04:12:42;3.72;;;1.75;;
72569;SDS011;60594;50.204;8.844;2023-02-28T04:15:08;4.97;;;2.13;;
72569;SDS011;60594;50.204;8.844;2023-02-28T04:17:36;3.17;;;1.63;;
72569;SDS011;60594;50.204;8.844;2023-02-28T04:20:03;4.35;;;2.08;;
72569;SDS011;60594;50.204;8.844;2023-02-28T04:22:35;4.10;;;2.42;;
72569;SDS011;60594;50.204;8.844;2023-02-28T04:25:03;4.78;;;2.25;;
72569;SDS011;60594;50.204;8.844;2023-02-28T04:27:29;3.90;;;2.25;;
72569;SDS011;60594;50.204;8.844;2023-02-28T04:29:56;4.90;;;2.42;;
72569;SDS011;60594;50.204;8.844;2023-02-28T04:32:22;5.10;;;2.22;;
72569;SDS011;60594;50.204;8.844;2023-02-28T04:34:49;4.57;;;2.63;;
72569;SDS011;60594;50.204;8.844;2023-02-28T04:37:15;4.43;;;2.50;;
72569;SDS011;60594;50.204;8.844;2023-02-28T04:39:42;5.05;;;2.15;;
72569;SDS011;60594;50.204;8.844;2023-02-28T04:42:09;5.07;;;2.65;;
72569;SDS011;60594;50.204;8.844;2023-02-28T04:44:36;5.95;;;3.13;;
72569;SDS011;60594;50.204;8.844;2023-02-28T04:47:03;5.03;;;2.38;;
72569;SDS011;60594;50.204;8.844;2023-02-28T04:49:29;3.97;;;1.90;;
72569;SDS011;60594;50.204;8.844;2023-02-28T04:51:56;3.72;;;1.77;;
72569;SDS011;60594;50.204;8.844;2023-02-28T04:54:22;3.88;;;2.25;;
72569;SDS011;60594;50.204;8.844;2023-02-28T04:56:48;4.88;;;2.13;;
72569;SDS011;60594;50.204;8.844;2023-02-28T04:59:16;2.67;;;1.67;;
72569;SDS011;60594;50.204;8.844;2023-02-28T05:01:44;4.43;;;2.40;;
72569;SDS011;60594;50.204;8.844;2023-02-28T05:04:13;4.05;;;2.08;;
72569;SDS011;60594;50.204;8.844;2023-02-28T05:06:40;5.93;;;2.38;;
72569;SDS011;60594;50.204;8.844;2023-02-28T05:09:06;3.55;;;2.38;;
72569;SDS011;60594;50.204;8.844;2023-02-28T05:11:33;3.83;;;1.95;;
72569;SDS011;60594;50.204;8.844;2023-02-28T05:14:02;3.50;;;1.63;;
72569;SDS011;60594;50.204;8.844;2023-02-28T05:16:29;6.20;;;2.45;;
72569;SDS011;60594;50.204;8.844;2023-02-28T05:18:57;4.22;;;1.95;;
72569;SDS011;60594;50.204;8.844;2023-02-28T05:21:25;3.63;;;1.90;;
72569;SDS011;60594;50.204;8.844;2023-02-28T05:23:52;5.10;;;1.80;;
72569;SDS011;60594;50.204;8.844;2023-02-28T05:26:18;4.45;;;2.13;;
72569;SDS011;60594;50.204;8.844;2023-02-28T05:28:45;4.38;;;1.98;;
72569;SDS011;60594;50.204;8.844;2023-02-28T05:31:12;6.60;;;2.40;;
72569;SDS011;60594;50.204;8.844;2023-02-28T05:33:39;3.40;;;2.83;;
72569;SDS011;60594;50.204;8.844;2023-02-28T05:36:05;3.38;;;2.08;;
72569;SDS011;60594;50.204;8.844;2023-02-28T05:38:32;4.88;;;2.33;;
72569;SDS011;60594;50.204;8.844;2023-02-28T05:40:59;2.85;;;1.52;;
72569;SDS011;60594;50.204;8.844;2023-02-28T05:43:26;3.20;;;1.67;;
72569;SDS011;60594;50.204;8.844;2023-02-28T05:45:52;4.53;;;2.65;;
72569;SDS011;60594;50.204;8.844;2023-02-28T05:48:19;4.85;;;2.45;;
72569;SDS011;60594;50.204;8.844;2023-02-28T05:50:45;4.60;;;2.17;;
72569;SDS011;60594;50.204;8.844;2023-02-28T05:53:12;3.92;;;1.92;;
72569;SDS011;60594;50.204;8.844;2023-02-28T05:55:38;3.78;;;1.88;;
72569;SDS011;60594;50.204;8.844;2023-02-28T05:58:07;3.33;;;1.70;;
72569;SDS011;60594;50.204;8.844;2023-02-28T06:00:33;3.47;;;1.95;;
72569;SDS011;60594;50.204;8.844;2023-02-28T06:03:01;3.67;;;1.50;;
72569;SDS011;60594;50.204;8.844;2023-02-28T06:05:28;4.43;;;1.83;;
72569;SDS011;60594;50.204;8.844;2023-02-28T06:07:54;4.47;;;1.95;;
72569;SDS011;60594;50.204;8.844;2023-02-28T06:10:21;4.18;;;2.33;;
72569;SDS011;60594;50.204;8.844;2023-02-28T06:12:47;3.55;;;2.08;;
72569;SDS011;60594;50.204;8.844;2023-02-28T06:15:14;3.67;;;1.63;;
72569;SDS011;60594;50.204;8.844;2023-02-28T06:17:42;4.65;;;2.33;;
72569;SDS011;60594;50.204;8.844;2023-02-28T06:20:10;4.03;;;1.92;;
72569;SDS011;60594;50.204;8.844;2023-02-28T06:22:39;5.43;;;1.88;;
72569;SDS011;60594;50.204;8.844;2023-02-28T06:25:05;3.88;;;2.33;;
72569;SDS011;60594;50.204;8.844;2023-02-28T06:27:33;3.22;;;2.05;;
72569;SDS011;60594;50.204;8.844;2023-02-28T06:29:59;4.20;;;1.77;;
72569;SDS011;60594;50.204;8.844;2023-02-28T06:32:26;2.90;;;1.60;;
72569;SDS011;60594;50.204;8.844;2023-02-28T06:34:52;5.75;;;2.25;;
72569;SDS011;60594;50.204;8.844;2023-02-28T06:37:19;3.33;;;1.65;;
72569;SDS011;60594;50.204;8.844;2023-02-28T06:39:46;3.72;;;1.60;;
72569;SDS011;60594;50.204;8.844;2023-02-28T06:42:12;5.55;;;2.88;;
72569;SDS011;60594;50.204;8.844;2023-02-28T06:44:39;5.22;;;2.33;;
72569;SDS011;60594;50.204;8.844;2023-02-28T06:47:05;4.72;;;2.42;;
72569;SDS011;60594;50.204;8.844;2023-02-28T06:49:33;4.88;;;3.08;;
72569;SDS011;60594;50.204;8.844;2023-02-28T06:52:01;4.60;;;1.88;;
72569;SDS011;60594;50.204;8.844;2023-02-28T06:54:28;4.00;;;1.88;;
72569;SDS011;60594;50.204;8.844;2023-02-28T06:56:55;4.72;;;2.25;;
72569;SDS011;60594;50.204;8.844;2023-02-28T06:59:24;4.38;;;2.33;;
72569;SDS011;60594;50.204;8.844;2023-02-28T07:01:50;4.13;;;1.98;;
72569;SDS011;60594;50.204;8.844;2023-02-28T07:04:17;3.72;;;2.22;;
72569;SDS011;60594;50.204;8.844;2023-02-28T07:06:43;5.35;;;2.05;;
72569;SDS011;60594;50.204;8.844;2023-02-28T07:09:10;4.32;;;1.88;;
72569;SDS011;60594;50.204;8.844;2023-02-28T07:11:37;5.25;;;2.67;;
72569;SDS011;60594;50.204;8.844;2023-02-28T07:14:03;3.92;;;2.20;;
72569;SDS011;60594;50.204;8.844;2023-02-28T07:16:30;5.78;;;3.35;;
72569;SDS011;60594;50.204;8.844;2023-02-28T07:18:56;4.68;;;2.25;;
72569;SDS011;60594;50.204;8.844;2023-02-28T07:21:23;5.50;;;3.20;;
72569;SDS011;60594;50.204;8.844;2023-02-28T07:23:49;4.57;;;2.03;;
72569;SDS011;60594;50.204;8.844;2023-02-28T07:26:19;4.13;;;2.05;;
72569;SDS011;60594;50.204;8.844;2023-02-28T07:28:46;5.82;;;2.33;;
72569;SDS011;60594;50.204;8.844;2023-02-28T07:31:15;5.18;;;2.22;;
72569;SDS011;60594;50.204;8.844;2023-02-28T07:33:43;4.38;;;2.55;;
72569;SDS011;60594;50.204;8.844;2023-02-28T07:36:11;5.05;;;2.30;;
72569;SDS011;60594;50.204;8.844;2023-02-28T07:38:42;4.57;;;2.42;;
72569;SDS011;60594;50.204;8.844;2023-02-28T07:41:10;5.20;;;2.47;;
72569;SDS011;60594;50.204;8.844;2023-02-28T07:43:37;5.78;;;2.08;;
72569;SDS011;60594;50.204;8.844;2023-02-28T07:46:08;3.63;;;2.22;;
72569;SDS011;60594;50.204;8.844;2023-02-28T07:48:36;5.03;;;2.38;;
72569;SDS011;60594;50.204;8.844;2023-02-28T07:51:03;4.07;;;2.00;;
72569;SDS011;60594;50.204;8.844;2023-02-28T07:53:30;4.35;;;2.25;;
72569;SDS011;60594;50.204;8.844;2023-02-28T07:56:00;5.90;;;2.63;;
72569;SDS011;60594;50.204;8.844;2023-02-28T07:58:28;4.35;;;2.55;;
72569;SDS011;60594;50.204;8.844;2023-02-28T08:00:56;5.13;;;2.70;;
72569;SDS011;60594;50.204;8.844;2023-02-28T08:03:23;6.10;;;2.42;;
72569;SDS011;60594;50.204;8.844;2023-02-28T08:05:50;4.90;;;2.42;;
72569;SDS011;60594;50.204;8.844;2023-02-28T08:08:18;3.97;;;2.25;;
72569;SDS011;60594;50.204;8.844;2023-02-28T08:10:45;6.15;;;2.30;;
72569;SDS011;60594;50.204;8.844;2023-02-28T08:13:11;4.78;;;2.40;;
72569;SDS011;60594;50.204;8.844;2023-02-28T08:15:41;4.18;;;2.13;;
72569;SDS011;60594;50.204;8.844;2023-02-28T08:18:08;4.75;;;2.13;;
72569;SDS011;60594;50.204;8.844;2023-02-28T08:20:36;3.92;;;1.95;;
72569;SDS011;60594;50.204;8.844;2023-02-28T08:23:02;5.32;;;2.45;;
72569;SDS011;60594;50.204;8.844;2023-02-28T08:25:29;4.43;;;2.55;;
72569;SDS011;60594;50.204;8.844;2023-02-28T08:27:56;4.75;;;2.78;;
72569;SDS011;60594;50.204;8.844;2023-02-28T08:30:22;3.85;;;2.38;;
72569;SDS011;60594;50.204;8.844;2023-02-28T08:32:49;3.72;;;1.90;;
72569;SDS011;60594;50.204;8.844;2023-02-28T08:35:16;5.20;;;2.05;;
72569;SDS011;60594;50.204;8.844;2023-02-28T08:37:42;5.05;;;2.45;;
72569;SDS011;60594;50.204;8.844;2023-02-28T08:40:09;4.75;;;2.50;;
72569;SDS011;60594;50.204;8.844;2023-02-28T08:42:37;5.40;;;2.15;;
72569;SDS011;60594;50.204;8.844;2023-02-28T08:45:03;6.45;;;3.28;;
72569;SDS011;60594;50.204;8.844;2023-02-28T08:47:31;4.18;;;2.60;;
72569;SDS011;60594;50.204;8.844;2023-02-28T08:49:58;7.45;;;4.35;;
72569;SDS011;60594;50.204;8.844;2023-02-28T08:52:24;9.43;;;4.55;;
72569;SDS011;60594;50.204;8.844;2023-02-28T08:54:51;4.72;;;2.33;;
72569;SDS011;60594;50.204;8.844;2023-02-28T08:57:17;6.35;;;2.95;;
72569;SDS011;60594;50.204;8.844;2023-02-28T08:59:44;4.05;;;2.05;;
72569;SDS011;60594;50.204;8.844;2023-02-28T09:02:14;4.80;;;2.20;;
72569;SDS011;60594;50.204;8.844;2023-02-28T09:04:41;4.18;;;2.55;;
72569;SDS011;60594;50.204;8.844;2023-02-28T09:07:07;4.55;;;2.25;;
72569;SDS011;60594;50.204;8.844;2023-02-28T09:09:35;4.65;;;1.95;;
72569;SDS011;60594;50.204;8.844;2023-02-28T09:12:01;4.95;;;2.72;;
72569;SDS011;60594;50.204;8.844;2023-02-28T09:14:28;5.50;;;2.33;;
72569;SDS011;60594;50.204;8.844;2023-02-28T09:16:55;4.95;;;2.70;;
72569;SDS011;60594;50.204;8.844;2023-02-28T09:19:22;4.68;;;2.65;;
72569;SDS011;60594;50.204;8.844;2023-02-28T09:21:48;5.30;;;2.38;;
72569;SDS011;60594;50.204;8.844;2023-02-28T09:24:18;5.40;;;2.83;;
72569;SDS011;60594;50.204;8.844;2023-02-28T09:26:46;4.95;;;2.80;;
72569;SDS011;60594;50.204;8.844;2023-02-28T09:29:13;5.35;;;2.83;;
72569;SDS011;60594;50.204;8.844;2023-02-28T09:31:40;6.82;;;2.83;;
72569;SDS011;60594;50.204;8.844;2023-02-28T09:34:07;5.30;;;2.67;;
72569;SDS011;60594;50.204;8.844;2023-02-28T09:36:34;7.10;;;3.85;;
72569;SDS011;60594;50.204;8.844;2023-02-28T09:39:01;6.03;;;2.90;;
72569;SDS011;60594;50.204;8.844;2023-02-28T09:41:27;4.57;;;2.63;;
72569;SDS011;60594;50.204;8.844;2023-02-28T09:44:12;5.70;;;2.40;;
72569;SDS011;60594;50.204;8.844;2023-02-28T09:46:48;4.03;;;2.28;;
72569;SDS011;60594;50.204;8.844;2023-02-28T09:49:22;6.85;;;2.80;;
72569;SDS011;60594;50.204;8.844;2023-02-28T09:51:58;6.25;;;2.72;;
72569;SDS011;60594;50.204;8.844;2023-02-28T09:54:28;6.57;;;2.55;;
72569;SDS011;60594;50.204;8.844;2023-02-28T09:59:34;5.78;;;2.70;;
72569;SDS011;60594;50.204;8.844;2023-02-28T10:04:58;4.72;;;2.78;;
72569;SDS011;60594;50.204;8.844;2023-02-28T10:10:41;5.00;;;2.83;;
72569;SDS011;60594;50.204;8.844;2023-02-28T10:16:11;5.80;;;3.60;;
72569;SDS011;60594;50.204;8.844;2023-02-28T10:19:13;5.35;;;2.72;;
72569;SDS011;60594;50.204;8.844;2023-02-28T10:22:33;6.43;;;2.92;;
72569;SDS011;60594;50.204;8.844;2023-02-28T10:24:53;6.03;;;3.13;;
72569;SDS011;60594;50.204;8.844;2023-02-28T10:27:28;6.05;;;3.47;;
72569;SDS011;60594;50.204;8.844;2023-02-28T10:29:58;4.68;;;2.47;;
72569;SDS011;60594;50.204;8.844;2023-02-28T10:32:27;5.57;;;2.63;;
72569;SDS011;60594;50.204;8.844;2023-02-28T10:37:46;4.90;;;2.97;;
72569;SDS011;60594;50.204;8.844;2023-02-28T10:42:54;4.82;;;2.70;;
72569;SDS011;60594;50.204;8.844;2023-02-28T10:45:23;6.82;;;2.63;;
72569;SDS011;60594;50.204;8.844;2023-02-28T10:47:55;4.78;;;2.60;;
72569;SDS011;60594;50.204;8.844;2023-02-28T10:53:25;4.60;;;2.33;;
72569;SDS011;60594;50.204;8.844;2023-02-28T10:56:05;5.45;;;2.88;;
72569;SDS011;60594;50.204;8.844;2023-02-28T11:03:59;6.38;;;3.05;;
72569;SDS011;60594;50.204;8.844;2023-02-28T11:06:26;5.50;;;2.78;;
72569;SDS011;60594;50.204;8.844;2023-02-28T11:08:58;5.15;;;2.97;;
72569;SDS011;60594;50.204;8.844;2023-02-28T11:11:28;5.38;;;2.75;;
72569;SDS011;60594;50.204;8.844;2023-02-28T11:13:57;6.03;;;2.58;;
72569;SDS011;60594;50.204;8.844;2023-02-28T11:16:31;6.47;;;3.17;;
72569;SDS011;60594;50.204;8.844;2023-02-28T11:19:02;6.85;;;3.00;;
72569;SDS011;60594;50.204;8.844;2023-02-28T11:21:34;5.75;;;3.20;;
72569;SDS011;60594;50.204;8.844;2023-02-28T11:24:16;7.38;;;3.65;;
72569;SDS011;60594;50.204;8.844;2023-02-28T11:26:50;6.95;;;3.13;;
72569;SDS011;60594;50.204;8.844;2023-02-28T11:29:19;5.95;;;3.58;;
72569;SDS011;60594;50.204;8.844;2023-02-28T11:32:13;7.45;;;3.85;;
72569;SDS011;60594;50.204;8.844;2023-02-28T11:34:46;6.20;;;3.63;;
72569;SDS011;60594;50.204;8.844;2023-02-28T11:37:27;6.10;;;3.15;;
72569;SDS011;60594;50.204;8.844;2023-02-28T11:39:55;6.10;;;3.60;;
72569;SDS011;60594;50.204;8.844;2023-02-28T11:42:43;7.07;;;3.80;;
72569;SDS011;60594;50.204;8.844;2023-02-28T11:48:10;6.05;;;2.80;;
72569;SDS011;60594;50.204;8.844;2023-02-28T11:53:41;6.00;;;2.78;;
72569;SDS011;60594;50.204;8.844;2023-02-28T12:05:16;5.75;;;3.42;;
72569;SDS011;60594;50.204;8.844;2023-02-28T12:11:03;6.43;;;3.25;;
72569;SDS011;60594;50.204;8.844;2023-02-28T12:21:46;6.65;;;3.30;;
72569;SDS011;60594;50.204;8.844;2023-02-28T12:27:12;5.88;;;2.95;;
72569;SDS011;60594;50.204;8.844;2023-02-28T12:29:46;6.32;;;3.38;;
72569;SDS011;60594;50.204;8.844;2023-02-28T12:32:21;6.47;;;3.13;;
72569;SDS011;60594;50.204;8.844;2023-02-28T12:40:20;6.00;;;3.40;;
72569;SDS011;60594;50.204;8.844;2023-02-28T12:42:52;5.13;;;3.00;;
72569;SDS011;60594;50.204;8.844;2023-02-28T12:46:07;6.72;;;3.33;;
72569;SDS011;60594;50.204;8.844;2023-02-28T12:51:23;5.75;;;3.13;;
72569;SDS011;60594;50.204;8.844;2023-02-28T12:59:25;4.97;;;2.97;;
72569;SDS011;60594;50.204;8.844;2023-02-28T13:04:56;6.60;;;2.63;;
72569;SDS011;60594;50.204;8.844;2023-02-28T13:07:45;7.05;;;3.42;;
72569;SDS011;60594;50.204;8.844;2023-02-28T13:10:17;6.22;;;3.22;;
72569;SDS011;60594;50.204;8.844;2023-02-28T13:12:52;8.20;;;3.63;;
72569;SDS011;60594;50.204;8.844;2023-02-28T13:15:24;6.63;;;4.55;;
72569;SDS011;60594;50.204;8.844;2023-02-28T13:17:55;6.80;;;3.42;;
72569;SDS011;60594;50.204;8.844;2023-02-28T13:20:25;5.28;;;3.10;;
72569;SDS011;60594;50.204;8.844;2023-02-28T13:22:56;5.65;;;3.47;;
72569;SDS011;60594;50.204;8.844;2023-02-28T13:28:00;6.63;;;3.20;;
72569;SDS011;60594;50.204;8.844;2023-02-28T13:33:24;5.68;;;4.28;;
72569;SDS011;60594;50.204;8.844;2023-02-28T13:38:44;6.05;;;3.95;;
72569;SDS011;60594;50.204;8.844;2023-02-28T13:41:40;6.70;;;3.50;;
72569;SDS011;60594;50.204;8.844;2023-02-28T13:44:09;6.40;;;3.40;;
72569;SDS011;60594;50.204;8.844;2023-02-28T13:51:52;6.90;;;3.45;;
72569;SDS011;60594;50.204;8.844;2023-02-28T13:57:45;6.00;;;3.33;;
72569;SDS011;60594;50.204;8.844;2023-02-28T14:05:38;5.53;;;3.55;;
72569;SDS011;60594;50.204;8.844;2023-02-28T14:08:06;5.97;;;3.42;;
72569;SDS011;60594;50.204;8.844;2023-02-28T14:10:50;6.40;;;3.65;;
72569;SDS011;60594;50.204;8.844;2023-02-28T14:13:44;6.80;;;3.90;;
72569;SDS011;60594;50.204;8.844;2023-02-28T14:16:13;7.28;;;3.58;;
72569;SDS011;60594;50.204;8.844;2023-02-28T14:18:56;6.00;;;3.42;;
72569;SDS011;60594;50.204;8.844;2023-02-28T14:21:31;6.85;;;3.38;;
72569;SDS011;60594;50.204;8.844;2023-02-28T14:35:50;6.30;;;2.97;;
72569;SDS011;60594;50.204;8.844;2023-02-28T14:38:40;6.22;;;3.35;;
72569;SDS011;60594;50.204;8.844;2023-02-28T14:41:17;6.93;;;3.55;;
72569;SDS011;60594;50.204;8.844;2023-02-28T14:44:18;6.47;;;3.10;;
72569;SDS011;60594;50.204;8.844;2023-02-28T14:47:27;6.40;;;3.55;;
72569;SDS011;60594;50.204;8.844;2023-02-28T14:50:21;7.70;;;3.53;;
72569;SDS011;60594;50.204;8.844;2023-02-28T14:52:52;7.18;;;3.42;;
72569;SDS011;60594;50.204;8.844;2023-02-28T14:55:24;6.50;;;3.20;;
72569;SDS011;60594;50.204;8.844;2023-02-28T14:57:54;8.57;;;4.70;;
72569;SDS011;60594;50.204;8.844;2023-02-28T15:02:55;7.22;;;3.47;;
72569;SDS011;60594;50.204;8.844;2023-02-28T15:05:27;7.65;;;3.78;;
72569;SDS011;60594;50.204;8.844;2023-02-28T15:08:12;5.45;;;2.83;;
72569;SDS011;60594;50.204;8.844;2023-02-28T15:10:54;4.50;;;2.75;;
72569;SDS011;60594;50.204;8.844;2023-02-28T15:13:35;7.07;;;4.20;;
72569;SDS011;60594;50.204;8.844;2023-02-28T15:16:08;7.63;;;4.10;;
72569;SDS011;60594;50.204;8.844;2023-02-28T15:18:57;7.03;;;3.85;;
72569;SDS011;60594;50.204;8.844;2023-02-28T15:21:36;7.30;;;3.17;;
72569;SDS011;60594;50.204;8.844;2023-02-28T15:27:02;6.78;;;3.75;;
72569;SDS011;60594;50.204;8.844;2023-02-28T15:29:34;6.07;;;3.67;;
72569;SDS011;60594;50.204;8.844;2023-02-28T15:32:16;6.40;;;3.75;;
72569;SDS011;60594;50.204;8.844;2023-02-28T15:34:50;5.72;;;3.08;;
72569;SDS011;60594;50.204;8.844;2023-02-28T15:40:07;7.93;;;3.92;;
72569;SDS011;60594;50.204;8.844;2023-02-28T15:42:38;7.07;;;3.47;;
72569;SDS011;60594;50.204;8.844;2023-02-28T15:45:26;6.35;;;3.25;;
72569;SDS011;60594;50.204;8.844;2023-02-28T15:48:20;5.50;;;3.30;;
72569;SDS011;60594;50.204;8.844;2023-02-28T15:50:52;6.78;;;4.32;;
72569;SDS011;60594;50.204;8.844;2023-02-28T15:53:47;5.78;;;3.05;;
72569;SDS011;60594;50.204;8.844;2023-02-28T15:58:50;6.75;;;3.22;;
72569;SDS011;60594;50.204;8.844;2023-02-28T16:01:24;7.45;;;3.50;;
72569;SDS011;60594;50.204;8.844;2023-02-28T16:03:54;7.22;;;3.55;;
72569;SDS011;60594;50.204;8.844;2023-02-28T16:09:05;6.85;;;3.45;;
72569;SDS011;60594;50.204;8.844;2023-02-28T16:11:37;5.28;;;3.03;;
72569;SDS011;60594;50.204;8.844;2023-02-28T16:14:17;6.88;;;4.00;;
72569;SDS011;60594;50.204;8.844;2023-02-28T16:16:48;6.80;;;3.70;;
72569;SDS011;60594;50.204;8.844;2023-02-28T16:19:17;8.40;;;3.63;;
72569;SDS011;60594;50.204;8.844;2023-02-28T16:21:45;6.85;;;4.10;;
72569;SDS011;60594;50.204;8.844;2023-02-28T16:24:14;6.40;;;3.50;;
72569;SDS011;60594;50.204;8.844;2023-02-28T16:26:40;6.32;;;3.38;;
72569;SDS011;60594;50.204;8.844;2023-02-28T16:29:17;7.80;;;3.83;;
72569;SDS011;60594;50.204;8.844;2023-02-28T16:31:53;7.07;;;3.78;;
72569;SDS011;60594;50.204;8.844;2023-02-28T16:34:20;6.13;;;3.42;;
72569;SDS011;60594;50.204;8.844;2023-02-28T16:36:47;7.32;;;3.42;;
72569;SDS011;60594;50.204;8.844;2023-02-28T16:39:15;6.93;;;3.72;;
72569;SDS011;60594;50.204;8.844;2023-02-28T16:41:44;5.55;;;3.00;;
72569;SDS011;60594;50.204;8.844;2023-02-28T16:44:14;6.22;;;3.45;;
72569;SDS011;60594;50.204;8.844;2023-02-28T16:46:56;5.60;;;3.00;;
72569;SDS011;60594;50.204;8.844;2023-02-28T16:49:25;7.38;;;3.47;;
72569;SDS011;60594;50.204;8.844;2023-02-28T16:51:53;6.00;;;3.35;;
72569;SDS011;60594;50.204;8.844;2023-02-28T16:54:21;7.82;;;3.85;;
72569;SDS011;60594;50.204;8.844;2023-02-28T16:56:49;6.40;;;3.95;;
72569;SDS011;60594;50.204;8.844;2023-02-28T16:59:21;5.75;;;3.08;;
72569;SDS011;60594;50.204;8.844;2023-02-28T17:01:50;6.80;;;3.30;;
72569;SDS011;60594;50.204;8.844;2023-02-28T17:06:46;6.80;;;2.83;;
72569;SDS011;60594;50.204;8.844;2023-02-28T17:09:22;6.47;;;3.08;;
72569;SDS011;60594;50.204;8.844;2023-02-28T17:11:52;6.43;;;4.07;;
72569;SDS011;60594;50.204;8.844;2023-02-28T17:14:20;6.63;;;3.95;;
72569;SDS011;60594;50.204;8.844;2023-02-28T17:16:49;6.85;;;4.78;;
72569;SDS011;60594;50.204;8.844;2023-02-28T17:19:17;7.60;;;3.95;;
72569;SDS011;60594;50.204;8.844;2023-02-28T17:21:44;6.30;;;4.43;;
72569;SDS011;60594;50.204;8.844;2023-02-28T17:24:11;6.90;;;3.88;;
72569;SDS011;60594;50.204;8.844;2023-02-28T17:26:38;7.88;;;3.67;;
72569;SDS011;60594;50.204;8.844;2023-02-28T17:29:17;7.60;;;4.07;;
72569;SDS011;60594;50.204;8.844;2023-02-28T17:31:46;7.15;;;4.07;;
72569;SDS011;60594;50.204;8.844;2023-02-28T17:34:13;7.18;;;3.80;;
72569;SDS011;60594;50.204;8.844;2023-02-28T17:36:46;9.32;;;4.47;;
72569;SDS011;60594;50.204;8.844;2023-02-28T17:39:14;8.23;;;4.78;;
72569;SDS011;60594;50.204;8.844;2023-02-28T17:41:45;8.70;;;4.40;;
72569;SDS011;60594;50.204;8.844;2023-02-28T17:44:14;7.70;;;3.85;;
72569;SDS011;60594;50.204;8.844;2023-02-28T17:46:41;6.22;;;3.83;;
72569;SDS011;60594;50.204;8.844;2023-02-28T17:49:10;7.40;;;4.22;;
72569;SDS011;60594;50.204;8.844;2023-02-28T17:51:38;8.48;;;4.43;;
72569;SDS011;60594;50.204;8.844;2023-02-28T17:54:05;9.90;;;5.05;;
72569;SDS011;60594;50.204;8.844;2023-02-28T17:56:32;8.02;;;4.50;;
72569;SDS011;60594;50.204;8.844;2023-02-28T17:59:03;14.07;;;6.53;;